createdAt,value
2022-11-02T00:00:47.985Z,0.90
2022-11-02T00:03:14.888Z,1.07
2022-11-02T00:05:41.763Z,1.00
2022-11-02T00:08:08.482Z,0.87
2022-11-02T00:10:35.210Z,1.13
2022-11-02T00:13:02.480Z,0.93
2022-11-02T00:15:33.304Z,2.17
2022-11-02T00:18:12.237Z,1.87
2022-11-02T00:20:41.587Z,2.47
2022-11-02T00:23:11.028Z,1.80
2022-11-02T00:25:43.884Z,1.70
2022-11-02T00:28:10.682Z,1.88
2022-11-02T00:30:37.997Z,2.13
2022-11-02T00:33:06.285Z,1.27
2022-11-02T00:35:34.568Z,1.13
2022-11-02T00:38:01.592Z,1.93
2022-11-02T00:40:28.758Z,1.50
2022-11-02T00:42:55.441Z,1.03
2022-11-02T00:45:23.105Z,1.77
2022-11-02T00:47:50.957Z,0.97
2022-11-02T00:50:17.773Z,2.27
2022-11-02T00:52:44.537Z,1.10
2022-11-02T00:55:12.122Z,1.30
2022-11-02T00:57:40.314Z,1.67
2022-11-02T01:00:10.107Z,1.10
2022-11-02T01:02:37.713Z,1.00
2022-11-02T01:05:05.755Z,1.57
2022-11-02T01:07:32.442Z,1.00
2022-11-02T01:09:59.242Z,1.03
2022-11-02T01:12:26.523Z,1.97
2022-11-02T01:14:53.304Z,1.63
2022-11-02T01:17:19.993Z,1.10
2022-11-02T01:19:46.839Z,1.70
2022-11-02T01:22:14.662Z,1.03
2022-11-02T01:24:41.374Z,0.90
2022-11-02T01:27:08.062Z,1.20
2022-11-02T01:29:34.746Z,0.70
2022-11-02T01:32:01.443Z,1.30
2022-11-02T01:34:28.092Z,1.00
2022-11-02T01:36:55.250Z,1.27
2022-11-02T01:39:22.031Z,0.87
2022-11-02T01:41:53.160Z,1.10
2022-11-02T01:44:31.992Z,1.43
2022-11-02T01:47:00.527Z,1.30
2022-11-02T01:49:28.881Z,0.90
2022-11-02T01:52:00.432Z,0.60
2022-11-02T01:54:31.187Z,1.03
2022-11-02T01:57:04.182Z,1.70
2022-11-02T02:02:16.413Z,1.20
2022-11-02T02:04:44.418Z,0.70
2022-11-02T02:07:13.745Z,1.40
2022-11-02T02:09:41.681Z,1.20
2022-11-02T02:12:08.540Z,0.87
2022-11-02T02:14:35.961Z,1.10
2022-11-02T02:17:20.811Z,0.90
2022-11-02T02:20:10.856Z,1.50
2022-11-02T02:22:43.500Z,0.90
2022-11-02T02:25:35.288Z,0.80
2022-11-02T02:28:30.693Z,1.50
2022-11-02T02:31:05.349Z,1.50
2022-11-02T02:33:36.932Z,1.03
2022-11-02T02:36:11.333Z,0.70
2022-11-02T02:39:06.951Z,1.30
2022-11-02T02:41:59.964Z,0.80
2022-11-02T02:44:32.335Z,0.95
2022-11-02T02:47:18.091Z,0.70
2022-11-02T02:49:56.941Z,0.97
2022-11-02T02:52:26.841Z,0.77
2022-11-02T02:54:58.487Z,0.73
2022-11-02T02:57:27.861Z,1.27
2022-11-02T02:59:55.220Z,1.93
2022-11-02T03:02:27.135Z,1.00
2022-11-02T03:04:53.960Z,1.20
2022-11-02T03:07:31.111Z,0.97
2022-11-02T03:10:13.087Z,1.43
2022-11-02T03:13:10.422Z,0.63
2022-11-02T03:15:46.914Z,0.90
2022-11-02T03:18:38.452Z,0.60
2022-11-02T03:21:30.420Z,0.60
2022-11-02T03:24:04.138Z,0.70
2022-11-02T03:26:40.640Z,1.50
2022-11-02T03:29:17.442Z,0.40
2022-11-02T03:32:03.388Z,0.60
2022-11-02T03:34:41.247Z,0.70
2022-11-02T03:37:16.857Z,0.90
2022-11-02T03:39:51.918Z,1.93
2022-11-02T03:42:23.670Z,0.97
2022-11-02T03:44:58.203Z,0.50
2022-11-02T03:47:26.889Z,0.80
2022-11-02T03:49:55.491Z,0.80
2022-11-02T03:52:25.974Z,0.73
2022-11-02T03:55:13.843Z,0.70
2022-11-02T03:57:46.527Z,0.80
2022-11-02T04:00:19.459Z,1.05
2022-11-02T04:05:14.986Z,0.93
2022-11-02T04:08:03.748Z,0.93
2022-11-02T04:10:30.837Z,0.70
2022-11-02T04:13:16.109Z,1.23
2022-11-02T04:15:42.952Z,0.80
2022-11-02T04:18:28.189Z,1.10
2022-11-02T04:20:54.943Z,0.57
2022-11-02T04:23:40.134Z,0.70
2022-11-02T04:26:06.897Z,0.63
2022-11-02T04:28:35.886Z,0.50
2022-11-02T04:31:02.792Z,1.17
2022-11-02T04:33:35.744Z,0.80
2022-11-02T04:38:42.805Z,0.83
2022-11-02T04:41:35.211Z,0.60
2022-11-02T04:44:02.189Z,1.47
2022-11-02T04:46:31.084Z,1.17
2022-11-02T04:48:57.810Z,0.90
2022-11-02T04:51:26.569Z,1.47
2022-11-02T04:53:54.865Z,0.60
2022-11-02T04:56:22.118Z,0.87
2022-11-02T04:58:53.459Z,1.00
2022-11-02T05:01:21.462Z,1.10
2022-11-02T05:03:50.023Z,1.00
2022-11-02T05:06:18.834Z,0.90
2022-11-02T05:08:45.600Z,1.10
2022-11-02T05:11:13.129Z,0.83
2022-11-02T05:13:41.319Z,0.90
2022-11-02T05:16:11.611Z,1.30
2022-11-02T05:18:38.298Z,0.60
2022-11-02T05:21:05.504Z,0.90
2022-11-02T05:23:32.243Z,0.73
2022-11-02T05:26:05.011Z,0.83
2022-11-02T05:28:32.386Z,1.38
2022-11-02T05:31:01.274Z,0.60
2022-11-02T05:33:30.823Z,1.30
2022-11-02T05:35:59.152Z,1.20
2022-11-02T05:38:26.871Z,0.70
2022-11-02T05:40:55.189Z,0.80
2022-11-02T05:43:22.213Z,0.90
2022-11-02T05:46:00.104Z,1.43
2022-11-02T05:48:28.266Z,2.30
2022-11-02T05:50:59.580Z,1.00
2022-11-02T05:53:27.024Z,1.13
2022-11-02T05:55:58.775Z,0.70
2022-11-02T05:58:25.914Z,0.77
2022-11-02T06:00:52.598Z,1.73
2022-11-02T06:03:20.698Z,1.43
2022-11-02T06:05:47.428Z,1.00
2022-11-02T06:08:14.147Z,0.90
2022-11-02T06:10:43.324Z,1.33
2022-11-02T06:13:10.445Z,1.80
2022-11-02T06:15:37.075Z,1.03
2022-11-02T06:18:03.936Z,1.70
2022-11-02T06:20:30.656Z,1.53
2022-11-02T06:22:57.524Z,1.50
2022-11-02T06:25:24.190Z,0.90
2022-11-02T06:27:56.586Z,1.87
2022-11-02T06:30:24.918Z,1.10
2022-11-02T06:32:53.348Z,1.83
2022-11-02T06:35:22.035Z,1.37
2022-11-02T06:37:49.128Z,1.93
2022-11-02T06:40:15.995Z,1.27
2022-11-02T06:42:45.348Z,1.60
2022-11-02T06:45:23.743Z,1.80
2022-11-02T06:47:50.485Z,1.00
2022-11-02T06:50:17.512Z,1.50
2022-11-02T06:52:46.128Z,1.73
2022-11-02T06:55:14.457Z,1.50
2022-11-02T06:57:42.523Z,1.57
2022-11-02T07:00:14.622Z,1.93
2022-11-02T07:02:46.370Z,1.80
2022-11-02T07:05:13.636Z,1.90
2022-11-02T07:07:40.266Z,2.47
2022-11-02T07:10:10.529Z,2.20
2022-11-02T07:12:37.356Z,2.73
2022-11-02T07:15:04.254Z,2.33
2022-11-02T07:17:32.322Z,2.23
2022-11-02T07:19:59.213Z,2.43
2022-11-02T07:22:25.899Z,1.73
2022-11-02T07:24:52.562Z,1.90
2022-11-02T07:27:21.044Z,2.03
2022-11-02T07:29:47.772Z,2.67
2022-11-02T07:32:15.061Z,2.50
2022-11-02T07:34:41.828Z,2.87
2022-11-02T07:37:08.486Z,2.37
2022-11-02T07:39:35.138Z,3.63
2022-11-02T07:42:01.991Z,2.20
2022-11-02T07:44:29.856Z,2.63
2022-11-02T07:46:56.975Z,3.33
2022-11-02T07:49:24.120Z,2.40
2022-11-02T07:51:50.743Z,3.13
2022-11-02T07:54:17.359Z,2.60
2022-11-02T07:56:47.173Z,3.07
2022-11-02T07:59:13.944Z,2.40
2022-11-02T08:01:40.660Z,3.33
2022-11-02T08:04:07.764Z,2.97
2022-11-02T08:06:35.910Z,1.87
2022-11-02T08:09:03.282Z,2.13
2022-11-02T08:11:30.226Z,3.23
2022-11-02T08:13:56.893Z,2.20
2022-11-02T08:16:23.539Z,1.90
2022-11-02T08:18:50.287Z,2.00
2022-11-02T08:21:16.934Z,2.20
2022-11-02T08:23:43.567Z,1.67
2022-11-02T08:26:10.374Z,2.13
2022-11-02T08:28:40.314Z,2.20
2022-11-02T08:31:12.287Z,1.90
2022-11-02T08:33:39.029Z,3.43
2022-11-02T08:36:05.975Z,2.20
2022-11-02T08:38:32.849Z,1.97
2022-11-02T08:40:59.693Z,1.90
2022-11-02T08:43:26.597Z,2.47
2022-11-02T08:48:44.089Z,1.97
2022-11-02T08:51:10.853Z,1.90
2022-11-02T08:53:37.515Z,2.53
2022-11-02T08:56:04.512Z,2.10
2022-11-02T08:58:32.194Z,2.50
2022-11-02T09:00:58.934Z,2.47
2022-11-02T09:03:27.265Z,1.80
2022-11-02T09:06:02.086Z,3.03
2022-11-02T09:08:29.757Z,3.57
2022-11-02T09:11:02.017Z,2.80
2022-11-02T09:13:29.228Z,2.75
2022-11-02T09:15:58.176Z,2.60
2022-11-02T09:18:25.619Z,4.03
2022-11-02T09:20:52.314Z,3.23
2022-11-02T09:23:20.697Z,2.17
2022-11-02T09:25:48.346Z,3.27
2022-11-02T09:28:15.648Z,2.37
2022-11-02T09:30:42.994Z,1.60
2022-11-02T09:33:10.516Z,2.50
2022-11-02T09:35:39.834Z,2.33
2022-11-02T09:38:06.891Z,2.23
2022-11-02T09:40:46.489Z,2.80
2022-11-02T09:43:50.239Z,2.13
2022-11-02T09:46:30.393Z,1.60
2022-11-02T09:49:25.146Z,1.50
2022-11-02T09:52:01.263Z,1.47
2022-11-02T09:54:30.703Z,1.47
2022-11-02T09:57:05.139Z,1.57
2022-11-02T10:02:13.623Z,1.73
2022-11-02T10:04:48.977Z,1.77
2022-11-02T10:07:18.379Z,2.13
2022-11-02T10:10:11.159Z,1.53
2022-11-02T10:12:54.630Z,2.88
2022-11-02T10:15:36.215Z,1.30
2022-11-02T10:18:03.497Z,1.47
2022-11-02T10:20:41.462Z,1.80
2022-11-02T10:23:12.188Z,2.00
2022-11-02T10:25:38.989Z,1.77
2022-11-02T10:28:13.730Z,2.03
2022-11-02T10:30:43.360Z,1.37
2022-11-02T10:33:20.839Z,1.10
2022-11-02T10:36:20.361Z,1.40
2022-11-02T10:39:10.347Z,1.40
2022-11-02T10:41:58.207Z,1.93
2022-11-02T10:44:44.216Z,1.40
2022-11-02T10:47:39.757Z,1.57
2022-11-02T10:50:35.197Z,1.60
2022-11-02T10:57:50.323Z,1.60
2022-11-02T11:01:15.369Z,1.33
2022-11-02T11:04:45.200Z,1.37
2022-11-02T11:08:14.410Z,1.87
2022-11-02T11:10:44.381Z,1.40
2022-11-02T11:25:28.884Z,1.90
2022-11-02T11:28:55.304Z,1.63
2022-11-02T11:36:14.427Z,2.33
2022-11-02T11:39:40.908Z,1.10
2022-11-02T11:43:07.361Z,1.10
2022-11-02T11:45:34.110Z,1.10
2022-11-02T11:49:03.319Z,1.23
2022-11-02T11:51:49.958Z,1.57
2022-11-02T11:59:20.601Z,1.47
2022-11-02T12:02:47.173Z,1.30
2022-11-02T12:09:11.347Z,1.70
2022-11-02T12:14:50.833Z,1.77
2022-11-02T12:17:36.427Z,1.30
2022-11-02T12:20:24.028Z,1.27
2022-11-02T12:23:26.117Z,1.47
2022-11-02T12:26:09.625Z,1.73
2022-11-02T12:29:12.385Z,1.00
2022-11-02T12:31:42.194Z,1.52
2022-11-02T12:34:25.753Z,1.17
2022-11-02T12:37:41.193Z,0.50
2022-11-02T12:40:42.520Z,0.87
2022-11-02T12:43:23.634Z,0.60
2022-11-02T12:45:56.818Z,0.90
2022-11-02T12:48:41.980Z,1.33
2022-11-02T12:51:14.846Z,0.83
2022-11-02T12:56:18.381Z,1.57
2022-11-02T12:58:45.345Z,1.23
2022-11-02T13:01:32.773Z,1.30
2022-11-02T13:04:28.128Z,1.53
2022-11-02T13:07:15.125Z,1.57
2022-11-02T13:10:04.973Z,1.80
2022-11-02T13:12:34.207Z,2.23
2022-11-02T13:15:02.935Z,2.20
2022-11-02T13:17:44.359Z,1.70
2022-11-02T13:20:26.235Z,2.27
2022-11-02T13:23:02.824Z,2.47
2022-11-02T13:25:40.753Z,3.40
2022-11-02T13:28:11.000Z,3.17
2022-11-02T13:30:40.620Z,3.20
2022-11-02T13:33:18.965Z,2.97
2022-11-02T13:35:46.404Z,3.40
2022-11-02T13:38:13.032Z,2.70
2022-11-02T13:40:47.470Z,3.17
2022-11-02T13:43:32.683Z,3.10
2022-11-02T13:46:05.010Z,4.87
2022-11-02T13:48:51.468Z,2.75
2022-11-02T13:51:42.756Z,2.87
2022-11-02T13:54:23.758Z,2.60
2022-11-02T13:56:56.827Z,2.70
2022-11-02T13:59:44.861Z,3.90
2022-11-02T14:02:17.925Z,3.47
2022-11-02T14:04:46.115Z,3.87
2022-11-02T14:07:25.461Z,2.40
2022-11-02T14:09:58.966Z,4.43
2022-11-02T14:12:28.535Z,3.83
2022-11-02T14:15:16.268Z,3.20
2022-11-02T14:18:02.493Z,3.57
2022-11-02T14:20:43.996Z,3.00
2022-11-02T14:23:14.501Z,3.80
2022-11-02T14:25:47.328Z,3.60
2022-11-02T14:28:20.206Z,4.45
2022-11-02T14:33:31.966Z,4.40
2022-11-02T14:39:00.158Z,4.27
2022-11-02T14:41:44.413Z,4.03
2022-11-02T14:44:37.034Z,4.70
2022-11-02T14:47:07.946Z,4.78
2022-11-02T14:49:46.693Z,3.67
2022-11-02T14:52:16.140Z,4.60
2022-11-02T14:55:22.333Z,3.10
2022-11-02T14:58:15.825Z,3.73
2022-11-02T15:00:48.633Z,3.73
2022-11-02T15:03:37.887Z,3.77
2022-11-02T15:06:10.925Z,4.83
2022-11-02T15:12:21.431Z,3.93
2022-11-02T15:14:48.726Z,4.75
2022-11-02T15:17:15.410Z,4.90
2022-11-02T15:19:47.520Z,3.40
2022-11-02T15:22:29.235Z,3.53
2022-11-02T15:25:00.454Z,4.13
2022-11-02T15:27:29.513Z,4.00
2022-11-02T15:29:56.874Z,3.97
2022-11-02T15:32:27.132Z,4.73
2022-11-02T15:34:55.798Z,4.80
2022-11-02T15:37:25.449Z,3.67
2022-11-02T15:40:04.491Z,4.27
2022-11-02T15:42:36.892Z,4.27
2022-11-02T15:45:27.022Z,3.58
2022-11-02T15:48:15.721Z,3.07
2022-11-02T15:50:59.848Z,4.00
2022-11-02T15:53:48.115Z,4.40
2022-11-02T15:56:56.927Z,3.10
2022-11-02T15:59:41.666Z,3.37
2022-11-02T16:02:18.855Z,3.83
2022-11-02T16:04:47.990Z,4.07
2022-11-02T16:07:17.443Z,2.60
2022-11-02T16:09:46.709Z,3.10
2022-11-02T16:12:19.183Z,4.03
2022-11-02T16:14:59.427Z,4.57
2022-11-02T16:17:30.807Z,2.60
2022-11-02T16:20:11.603Z,3.80
2022-11-02T16:22:39.220Z,3.63
2022-11-02T16:25:12.553Z,4.47
2022-11-02T16:27:39.903Z,4.03
2022-11-02T16:30:07.645Z,3.23
2022-11-02T16:32:34.877Z,3.13
2022-11-02T16:35:02.337Z,3.50
2022-11-02T16:37:29.112Z,3.47
2022-11-02T16:39:56.147Z,3.33
2022-11-02T16:42:24.594Z,2.77
2022-11-02T16:46:02.903Z,3.47
2022-11-02T16:49:27.813Z,2.77
2022-11-02T16:52:37.116Z,2.70
2022-11-02T16:55:49.696Z,3.40
2022-11-02T16:58:24.701Z,2.83
2022-11-02T17:00:59.981Z,2.80
2022-11-02T17:03:31.358Z,3.20
2022-11-02T17:06:04.525Z,2.33
2022-11-02T17:08:34.678Z,2.67
2022-11-02T17:11:04.516Z,2.57
2022-11-02T17:13:35.497Z,2.30
2022-11-02T17:16:12.317Z,2.00
2022-11-02T17:18:39.082Z,2.27
2022-11-02T17:21:16.875Z,3.10
2022-11-02T17:23:46.176Z,2.00
2022-11-02T17:26:36.748Z,2.03
2022-11-02T17:29:21.935Z,1.70
2022-11-02T17:31:56.022Z,2.20
2022-11-02T17:34:23.103Z,2.30
2022-11-02T17:36:50.857Z,3.23
2022-11-02T17:39:19.777Z,3.93
2022-11-02T17:42:23.231Z,4.90
2022-11-02T17:47:18.612Z,2.87
2022-11-02T17:49:45.458Z,3.20
2022-11-02T17:52:14.659Z,3.10
2022-11-02T17:54:41.468Z,3.73
2022-11-02T17:57:15.755Z,1.90
2022-11-02T17:59:42.525Z,4.40
2022-11-02T18:02:13.817Z,2.37
2022-11-02T18:04:40.971Z,3.00
2022-11-02T18:07:07.954Z,5.30
2022-11-02T18:09:34.733Z,2.37
2022-11-02T18:12:01.459Z,2.43
2022-11-02T18:14:28.126Z,3.47
2022-11-02T18:16:54.930Z,2.23
2022-11-02T18:19:21.610Z,3.30
2022-11-02T18:21:48.671Z,2.40
2022-11-02T18:24:15.657Z,3.03
2022-11-02T18:26:44.285Z,2.20
2022-11-02T18:29:14.001Z,2.37
2022-11-02T18:31:41.133Z,1.83
2022-11-02T18:34:07.954Z,3.20
2022-11-02T18:36:38.182Z,1.97
2022-11-02T18:39:05.263Z,2.13
2022-11-02T18:41:35.009Z,1.90
2022-11-02T18:44:14.588Z,1.57
2022-11-02T18:46:42.287Z,2.27
2022-11-02T18:49:08.997Z,1.57
2022-11-02T18:51:35.793Z,1.37
2022-11-02T18:54:06.436Z,2.00
2022-11-02T18:56:33.765Z,1.37
2022-11-02T19:03:51.846Z,1.00
2022-11-02T19:06:37.995Z,1.40
2022-11-02T19:09:24.436Z,1.20
2022-11-02T19:12:19.349Z,1.83
2022-11-02T19:14:49.665Z,1.27
2022-11-02T19:17:16.556Z,0.90
2022-11-02T19:19:45.689Z,1.73
2022-11-02T19:22:17.514Z,1.37
2022-11-02T19:24:44.877Z,0.87
2022-11-02T19:27:14.987Z,1.53
2022-11-02T19:29:41.968Z,1.27
2022-11-02T19:32:09.294Z,1.87
2022-11-02T19:34:37.039Z,2.27
2022-11-02T19:37:05.167Z,1.83
2022-11-02T19:39:32.799Z,3.97
2022-11-02T19:42:00.059Z,2.57
2022-11-02T19:44:26.820Z,1.77
2022-11-02T19:46:53.544Z,2.20
2022-11-02T19:49:20.557Z,1.47
2022-11-02T19:51:47.558Z,1.50
2022-11-02T19:54:17.132Z,1.43
2022-11-02T19:56:43.899Z,1.20
2022-11-02T19:59:11.241Z,1.03
2022-11-02T20:01:40.497Z,1.40
2022-11-02T20:04:07.753Z,1.87
2022-11-02T20:06:52.815Z,1.60
2022-11-02T20:09:20.278Z,1.10
2022-11-02T20:11:48.525Z,1.83
2022-11-02T20:14:17.314Z,2.40
2022-11-02T20:16:47.252Z,1.50
2022-11-02T20:19:20.908Z,1.03
2022-11-02T20:21:48.063Z,1.00
2022-11-02T20:24:14.868Z,1.10
2022-11-02T20:26:41.951Z,1.70
2022-11-02T20:29:12.256Z,1.90
2022-11-02T20:31:43.002Z,1.83
2022-11-02T20:34:13.579Z,2.03
2022-11-02T20:36:41.124Z,1.27
2022-11-02T20:39:08.355Z,1.97
2022-11-02T20:41:35.622Z,1.30
2022-11-02T20:44:03.071Z,1.50
2022-11-02T20:46:41.416Z,2.13
2022-11-02T20:49:21.088Z,1.10
2022-11-02T20:51:57.258Z,1.00
2022-11-02T20:54:25.346Z,1.90
2022-11-02T20:56:52.407Z,1.40
2022-11-02T20:59:19.521Z,1.47
2022-11-02T21:01:46.961Z,8.63
2022-11-02T21:04:20.335Z,1.60
2022-11-02T21:06:50.371Z,1.10
2022-11-02T21:09:18.482Z,1.07
2022-11-02T21:12:04.199Z,1.70
2022-11-02T21:15:30.977Z,1.00
2022-11-02T21:22:50.064Z,0.87
2022-11-02T21:26:13.012Z,0.90
2022-11-02T21:28:42.788Z,0.87
2022-11-02T21:31:18.346Z,0.90
2022-11-02T21:33:46.503Z,1.30
2022-11-02T21:36:14.903Z,1.20
2022-11-02T21:38:42.800Z,0.90
2022-11-02T21:41:19.885Z,1.00
2022-11-02T21:43:47.076Z,1.10
2022-11-02T21:46:14.315Z,0.93
2022-11-02T21:48:44.467Z,0.70
2022-11-02T21:51:20.773Z,1.43
2022-11-02T21:53:49.486Z,1.73
2022-11-02T21:56:26.010Z,0.93
2022-11-02T21:58:54.652Z,0.80
2022-11-02T22:01:45.343Z,1.10
2022-11-02T22:04:31.674Z,0.73
2022-11-02T22:07:00.005Z,1.00
2022-11-02T22:09:31.289Z,0.70
2022-11-02T22:12:17.384Z,0.87
2022-11-02T22:14:51.414Z,1.00
2022-11-02T22:17:50.214Z,0.60
2022-11-02T22:20:19.454Z,0.83
2022-11-02T22:22:46.440Z,0.60
2022-11-02T22:25:13.328Z,0.60
2022-11-02T22:27:40.181Z,1.00
2022-11-02T22:30:10.122Z,0.63
2022-11-02T22:32:37.018Z,0.90
2022-11-02T22:35:03.889Z,0.60
2022-11-02T22:37:49.284Z,0.90
2022-11-02T22:40:16.386Z,0.93
2022-11-02T22:42:43.257Z,0.90
2022-11-02T22:45:13.106Z,1.20
2022-11-02T22:48:39.564Z,1.00
2022-11-02T22:51:07.686Z,0.80
2022-11-02T22:53:34.901Z,1.40
2022-11-02T22:56:12.187Z,1.00
2022-11-02T22:58:44.062Z,1.70
2022-11-02T23:01:16.518Z,1.17
2022-11-02T23:03:44.176Z,1.10
2022-11-02T23:06:11.182Z,1.03
2022-11-02T23:08:44.931Z,0.90
2022-11-02T23:11:21.440Z,1.00
2022-11-02T23:14:02.765Z,1.50
2022-11-02T23:16:40.586Z,1.20
2022-11-02T23:19:25.257Z,1.10
2022-11-02T23:22:21.181Z,0.80
2022-11-02T23:25:11.463Z,0.77
2022-11-02T23:28:03.027Z,0.70
2022-11-02T23:30:54.583Z,0.80
2022-11-02T23:33:23.379Z,0.90
2022-11-02T23:36:08.545Z,0.80
2022-11-02T23:38:53.888Z,0.93
2022-11-02T23:41:20.731Z,1.00
2022-11-02T23:43:47.908Z,1.33
2022-11-02T23:46:15.167Z,1.00
2022-11-02T23:48:42.703Z,0.97
2022-11-02T23:51:30.868Z,0.70
2022-11-02T23:54:16.095Z,0.70
2022-11-02T23:56:43.229Z,0.90
2022-11-02T23:59:14.924Z,0.70
